Latest Weather Observations for Gannett Cay

IDQ60801

Issued at 6:06 pm EST Thursday 5 March 2015 (issued every 30 minutes, with the page automatically refreshed every 10 minutes)

About weather observations | Map of weather stations | Latest weather observations for QLD | Other Formats
Station Details ID: 200831 Name: GANNET CAY Lat: -21.98 Lon: 152.47 Height: 2.3 m
Data from the previous 72 hours. | See also: Recent months for locations in Queensland
Date/Time
EST
Temp
°C
App
Temp
°C
Dew
Point
Rel
Hum
%
Delta-T
°C
Wind Press
QNH
hPa
Press
MSL
hPa
Rain
since 9 am
mm
Dir
 
Spd
km/h
Gust
km/h
Spd
kts
Gust
kts
05/06:00pm 27.3 - - - - SW 6 9 3 5 1006.2 - -
05/05:30pm 27.4 - - - - WSW 7 9 4 5 1005.9 - -
05/05:29pm 27.5 - - - - WSW 7 9 4 5 1005.9 1006.1 -
05/05:00pm 27.5 - - - - W 6 7 3 4 1006.1 - -
05/04:30pm 27.9 - - - - WNW 7 9 4 5 1006.0 - -
05/04:29pm 27.9 - - - - WNW 6 7 3 4 1006.0 1006.2 -
05/04:00pm 27.9 - - - - W 7 11 4 6 1006.0 - -
05/03:30pm 27.6 - - - - WNW 4 11 2 6 1006.2 - -
05/03:29pm 27.8 - - - - WNW 4 11 2 6 1006.2 1006.4 -
05/03:00pm 28.0 - - - - CALM 0 7 0 4 1006.4 - -
05/02:30pm 27.7 - - - - NW 6 11 3 6 1007.0 - -
05/02:29pm 27.7 - - - - NW 6 9 3 5 1007.0 1007.2 -
05/02:00pm 28.0 - - - - NNW 2 7 1 4 1007.2 - -
05/01:30pm 27.7 - - - - NNW 6 9 3 5 1007.6 - -
05/01:29pm 27.9 - - - - NNW 6 9 3 5 1007.7 1007.9 -
05/01:00pm 28.0 - - - - CALM 0 0 0 0 1008.1 - -
05/12:30pm 28.2 - - - - CALM 0 0 0 0 1008.5 - -
05/12:29pm 28.2 - - - - CALM 0 0 0 0 1008.5 1008.7 -
05/12:00pm 28.1 - - - - CALM 0 6 0 3 1009.0 - -
05/11:30am 27.9 - - - - NE 4 7 2 4 1009.6 - -
05/11:29am 27.8 - - - - NE 2 6 1 3 1009.7 1009.8 -
05/11:00am 27.7 - - - - NE 4 7 2 4 1010.0 - -
05/10:30am 29.4 - - - - ENE 2 7 1 4 1010.3 - -
05/10:29am 29.2 - - - - ENE 2 6 1 3 1010.3 1010.4 -
05/10:00am 28.8 - - - - E 7 9 4 5 1010.5 - -
05/09:30am 28.4 - - - - E 9 11 5 6 1010.4 - -
05/09:29am 28.4 - - - - E 9 9 5 5 1010.4 1010.5 -
05/09:00am 28.2 - - - - E 9 11 5 6 1010.2 - -
05/08:30am 27.9 - - - - E 11 13 6 7 1010.2 - -
05/08:29am 27.9 - - - - E 11 - 6 - - 1010.3 -
05/08:00am 27.7 - - - - E 13 15 7 8 1010.1 - -
05/07:30am 27.6 - - - - E 15 15 8 8 1009.9 - -
05/07:29am 27.6 - - - - ESE 15 - 8 - - 1010.0 -
05/07:00am 27.4 - - - - E 13 17 7 9 1009.6 - -
05/06:30am 27.0 - - - - E 15 17 8 9 1009.3 - -
05/06:29am 27.0 - - - - E 15 - 8 - - 1009.4 -
05/06:00am 26.8 - - - - E 15 17 8 9 1009.1 - -
05/05:30am 26.7 - - - - E 15 19 8 10 1008.9 - -
05/05:29am 26.7 - - - - E 15 - 8 - - 1009.1 -
05/05:00am 26.6 - - - - E 17 19 9 10 1008.6 - -
05/04:30am 26.6 - - - - ESE 17 20 9 11 1008.5 - -
05/04:29am 26.6 - - - - ESE 17 - 9 - - 1008.7 -
05/04:00am 26.5 - - - - E 17 19 9 10 1008.5 - -
05/03:30am 26.7 - - - - E 17 20 9 11 1008.6 - -
05/03:29am 26.7 - - - - E 17 - 9 - - 1008.8 -
05/03:00am 26.7 - - - - E 19 22 10 12 1008.6 - -
05/02:30am 26.8 - - - - E 19 22 10 12 1008.9 - -
05/02:29am 26.9 - - - - E 20 - 11 - - 1009.1 -
05/02:00am 26.8 - - - - E 20 24 11 13 1009.3 - -
05/01:30am 26.8 - - - - E 20 24 11 13 1009.8 - -
05/01:29am 26.9 - - - - E 20 - 11 - - 1009.9 -
05/01:00am 26.9 - - - - E 22 26 12 14 1009.9 - -
05/12:30am 27.0 - - - - ESE 24 28 13 15 1010.4 - -
05/12:29am 27.0 - - - - ESE 24 - 13 - - 1010.5 -
05/12:00am 27.1 - - - - E 24 28 13 15 1010.7 - -
 
Date/Time
EST
Temp
°C
App
Temp
°C
Dew
Point
Rel
Hum
%
Delta-T
°C
Wind Press
QNH
hPa
Press
MSL
hPa
Rain
since 9 am
mm
Dir
 
Spd
km/h
Gust
km/h
Spd
kts
Gust
kts
04/11:30pm 27.0 - - - - E 26 28 14 15 1011.1 - -
04/11:29pm 27.1 - - - - E 26 - 14 - - 1011.2 -
04/11:00pm 27.1 - - - - E 24 28 13 15 1011.2 - -
04/10:30pm 27.2 - - - - E 26 30 14 16 1011.2 - -
04/10:29pm 27.0 - - - - E 26 - 14 - - 1011.4 -
04/10:00pm 27.2 - - - - ESE 24 28 13 15 1011.3 - -
04/09:30pm 27.4 - - - - ESE 26 30 14 16 1011.4 - -
04/09:29pm 27.2 - - - - ESE 28 - 15 - - 1011.5 -
04/09:00pm 27.2 - - - - ESE 26 30 14 16 1011.5 - -
04/08:30pm 27.3 - - - - ESE 28 30 15 16 1011.3 - -
04/08:29pm 27.3 - - - - ESE 28 - 15 - - 1011.4 -
04/08:00pm 27.3 - - - - SE 28 33 15 18 1010.9 - -
04/07:30pm 27.2 - - - - ESE 26 30 14 16 1010.8 - -
04/07:29pm 27.3 - - - - ESE 26 - 14 - - 1010.9 -
04/07:00pm 27.2 - - - - SE 28 32 15 17 1010.5 - -
04/06:30pm 27.3 - - - - SE 28 30 15 16 1010.5 - -
04/06:29pm 27.3 - - - - SE 28 - 15 - - 1010.6 -
04/06:00pm 27.4 - - - - SE 24 28 13 15 1010.3 - -
04/05:30pm 27.8 - - - - SE 24 28 13 15 1010.0 - -
04/05:29pm 27.8 - - - - SE 24 - 13 - - 1010.1 -
04/05:00pm 27.9 - - - - ESE 22 26 12 14 1009.9 - -
04/04:30pm 27.8 - - - - SSE 15 17 8 9 1009.8 - -
04/04:29pm 27.9 - - - - SSE 15 - 8 - - 1009.9 -
04/04:00pm 27.2 - - - - SSE 13 15 7 8 1009.7 - -
04/03:30pm 26.9 - - - - SSE 13 17 7 9 1009.8 - -
04/03:29pm 26.9 - - - - S 13 - 7 - - 1009.9 -
04/03:00pm 27.2 - - - - SSE 20 22 11 12 1009.8 - -
04/02:30pm 26.7 - - - - SE 28 30 15 16 1009.9 - -
04/02:29pm 26.8 - - - - SE 28 - 15 - - 1010.0 -
04/02:00pm 27.7 - - - - SE 15 20 8 11 1010.1 - -
04/01:30pm 27.7 - - - - SE 11 15 6 8 1010.4 - -
04/01:29pm 27.7 - - - - SE 11 - 6 - - 1010.5 -
04/01:00pm 26.1 - - - - E 9 11 5 6 1010.6 - -
04/12:30pm 24.6 - - - - E 30 39 16 21 1010.9 - -
04/12:29pm 24.8 - - - - E 32 - 17 - - 1011.0 -
04/12:16pm 26.1 - - - - E 35 44 19 24 1011.1 - -
04/12:00pm 27.8 - - - - SE 22 26 12 14 1011.2 - -
04/11:30am 27.6 - - - - SE 24 26 13 14 1011.4 - -
04/11:29am 27.5 - - - - SE 24 - 13 - - 1011.5 -
04/11:00am 27.8 - - - - ESE 22 28 12 15 1011.6 - -
04/10:30am 27.1 - - - - ESE 20 26 11 14 1011.8 - -
04/10:29am 27.1 - - - - ESE 20 - 11 - - 1011.9 -
04/10:00am 27.0 - - - - ESE 32 37 17 20 1011.7 - -
04/09:30am 27.3 - - - - ESE 30 35 16 19 1011.8 - -
04/09:29am 27.3 - - - - ESE 30 - 16 - - 1012.0 -
04/09:00am 27.1 - - - - ESE 32 33 17 18 1011.7 - -
04/08:30am 25.5 - - - - SE 28 32 15 17 1011.8 - -
04/08:29am 25.5 - - - - SE 28 - 15 - - 1011.9 -
04/08:00am 27.0 - - - - ESE 32 37 17 20 1011.5 - -
04/07:30am 26.6 - - - - ESE 33 37 18 20 1011.2 - -
04/07:29am 26.5 - - - - ESE 35 - 19 - - 1011.3 -
04/07:00am 25.3 - - - - SE 33 39 18 21 1010.9 - -
04/06:59am 25.4 - - - - SE 35 39 19 21 1010.9 - -
04/06:30am 25.4 - - - - E 41 46 22 25 1010.6 - -
04/06:29am 25.4 - - - - E 39 - 21 - - 1010.7 -
04/06:20am 26.7 - - - - ESE 26 37 14 20 1010.6 - -
04/06:00am 25.2 - - - - E 39 46 21 25 1010.6 - -
04/05:59am 25.2 - - - - E 39 46 21 25 1010.6 - -
04/05:30am 26.9 - - - - ESE 32 37 17 20 1010.1 - -
04/05:29am 26.8 - - - - ESE 32 - 17 - - 1010.2 -
04/05:00am 26.8 - - - - ESE 33 35 18 19 1009.9 - -
04/04:30am 26.6 - - - - ESE 32 35 17 19 1009.7 - -
04/04:29am 26.9 - - - - ESE 32 - 17 - - 1009.8 -
04/04:00am 26.7 - - - - ESE 33 35 18 19 1009.5 - -
04/03:30am 26.8 - - - - ESE 35 39 19 21 1009.7 - -
04/03:29am 26.8 - - - - ESE 35 - 19 - - 1009.8 -
04/03:00am 26.9 - - - - ESE 35 41 19 22 1009.9 - -
04/02:30am 26.9 - - - - ESE 35 39 19 21 1010.0 - -
04/02:29am 26.8 - - - - ESE 35 - 19 - - 1010.1 -
04/02:00am 25.7 - - - - SSE 26 30 14 16 1010.3 - -
04/01:30am 26.0 - - - - SE 33 39 18 21 1010.6 - -
04/01:29am 26.2 - - - - SE 33 - 18 - - 1010.7 -
04/01:00am 25.7 - - - - SE 35 39 19 21 1011.1 - -
04/12:30am 25.8 - - - - ESE 33 39 18 21 1011.3 - -
04/12:29am 25.7 - - - - ESE 33 - 18 - - 1011.4 -
04/12:00am 25.9 - - - - SE 39 43 21 23 1011.6 - -
 
Date/Time
EST
Temp
°C
App
Temp
°C
Dew
Point
Rel
Hum
%
Delta-T
°C
Wind Press
QNH
hPa
Press
MSL
hPa
Rain
since 9 am
mm
Dir
 
Spd
km/h
Gust
km/h
Spd
kts
Gust
kts
03/11:30pm 26.3 - - - - SE 37 43 20 23 1011.8 - -
03/11:29pm 26.2 - - - - SE 37 - 20 - - 1011.9 -
03/11:00pm 26.2 - - - - SE 35 41 19 22 1011.9 - -
03/10:30pm 26.4 - - - - SE 33 39 18 21 1011.9 - -
03/10:29pm 26.4 - - - - SE 33 - 18 - - 1011.9 -
03/10:00pm 26.3 - - - - ESE 39 44 21 24 1012.0 - -
03/09:30pm 26.6 - - - - ESE 37 43 20 23 1012.0 - -
03/09:29pm 26.6 - - - - ESE 37 - 20 - - 1012.1 -
03/09:00pm 26.7 - - - - ESE 37 43 20 23 1011.9 - -
03/08:30pm 27.1 - - - - ESE 37 43 20 23 1011.6 - -
03/08:29pm 26.9 - - - - ESE 37 - 20 - - 1011.7 -
03/08:00pm 27.0 - - - - SE 39 43 21 23 1011.1 - -
03/07:30pm 27.0 - - - - SE 37 43 20 23 1010.9 - -
03/07:29pm 27.0 - - - - SE 37 - 20 - - 1011.0 -
03/07:00pm 27.0 - - - - SE 37 43 20 23 1010.8 - -
03/06:30pm 26.9 - - - - SE 37 41 20 22 1010.6 - -
03/06:29pm 27.1 - - - - SE 37 - 20 - - 1010.7 -
03/06:00pm 27.1 - - - - SE 37 43 20 23 1010.3 - -
03/05:30pm 27.2 - - - - SE 39 44 21 24 1010.0 - -
03/05:29pm 27.2 - - - - SE 39 - 21 - - 1010.1 -
03/05:00pm 27.5 - - - - SE 37 43 20 23 1009.8 - -
03/04:30pm 27.5 - - - - SE 37 41 20 22 1009.7 - -
03/04:29pm 27.6 - - - - SE 35 - 19 - - 1009.8 -
03/04:00pm 27.7 - - - - SE 37 43 20 23 1009.5 - -
03/03:30pm 27.5 - - - - SE 37 43 20 23 1009.3 - -
03/03:29pm 27.5 - - - - SE 37 - 20 - - 1009.4 -
03/03:00pm 27.6 - - - - SSE 39 44 21 24 1009.3 - -
03/02:30pm 27.6 - - - - SE 37 43 20 23 1009.6 - -
03/02:29pm 27.6 - - - - SE 37 - 20 - - 1009.8 -
03/02:00pm 27.7 - - - - SSE 37 43 20 23 1010.0 - -
03/01:30pm 27.7 - - - - SE 39 44 21 24 1010.2 - -
03/01:29pm 27.7 - - - - SSE 39 - 21 - - 1010.4 -
03/01:00pm 27.6 - - - - SSE 37 43 20 23 1010.5 - -
03/12:30pm 27.6 - - - - SE 37 43 20 23 1010.6 - -
03/12:29pm 27.6 - - - - SE 37 - 20 - - 1010.7 -
03/12:00pm 27.6 - - - - SE 39 44 21 24 1010.9 - -
03/11:30am 27.4 - - - - SE 37 43 20 23 1011.3 - -
03/11:29am 27.5 - - - - SE 39 - 21 - - 1011.4 -
03/11:00am 27.4 - - - - SE 39 43 21 23 1011.5 - -
03/10:30am 27.5 - - - - SE 39 46 21 25 1011.7 - -
03/10:29am 27.5 - - - - SE 39 - 21 - - 1011.8 -
03/10:00am 27.5 - - - - SE 41 46 22 25 1011.7 - -
03/09:30am 27.4 - - - - SE 37 44 20 24 1011.6 - -
03/09:29am 27.5 - - - - SE 37 - 20 - - 1011.7 -
03/09:00am 27.2 - - - - SE 39 44 21 24 1011.6 - -
03/08:30am 27.3 - - - - SE 37 43 20 23 1011.5 - -
03/08:29am 27.4 - - - - SE 39 - 21 - - 1011.5 -
03/08:00am 27.3 - - - - SE 37 43 20 23 1011.2 - -
03/07:30am 27.1 - - - - SE 41 44 22 24 1011.0 - -
03/07:29am 27.1 - - - - SE 41 - 22 - - 1011.1 -
03/07:00am 27.1 - - - - SE 37 43 20 23 1010.9 - -
03/06:30am 27.1 - - - - SE 39 43 21 23 1010.6 - -
03/06:29am 27.0 - - - - SE 39 - 21 - - 1010.7 -
03/06:00am 26.9 - - - - SE 37 43 20 23 1010.2 - -
03/05:30am 26.8 - - - - SE 35 41 19 22 1009.9 - -
03/05:29am 26.8 - - - - SE 35 - 19 - - 1010.0 -
03/05:00am 26.8 - - - - SE 37 44 20 24 1009.7 - -
03/04:30am 26.8 - - - - ESE 33 41 18 22 1009.3 - -
03/04:29am 26.9 - - - - ESE 33 - 18 - - 1009.5 -
03/04:00am 26.9 - - - - ESE 35 43 19 23 1009.3 - -
03/03:30am 26.9 - - - - SE 37 43 20 23 1009.3 - -
03/03:29am 26.8 - - - - SE 37 - 20 - - 1009.5 -
03/03:00am 26.8 - - - - SE 39 44 21 24 1009.5 - -
03/02:30am 26.8 - - - - SE 39 46 21 25 1009.6 - -
03/02:29am 26.8 - - - - SE 39 - 21 - - 1009.7 -
03/02:00am 26.7 - - - - ESE 37 43 20 23 1009.8 - -
03/01:30am 26.9 - - - - ESE 39 44 21 24 1010.1 - -
03/01:29am 26.8 - - - - ESE 39 - 21 - - 1010.2 -
03/01:00am 26.8 - - - - ESE 37 43 20 23 1010.4 - -
03/12:30am 26.8 - - - - ESE 39 46 21 25 1010.6 - -
03/12:29am 26.9 - - - - ESE 39 - 21 - - 1010.7 -
03/12:00am 26.8 - - - - SE 39 44 21 24 1010.8 - -
 
Date/Time
EST
Temp
°C
App
Temp
°C
Dew
Point
Rel
Hum
%
Delta-T
°C
Wind Press
QNH
hPa
Press
MSL
hPa
Rain
since 9 am
mm
Dir
 
Spd
km/h
Gust
km/h
Spd
kts
Gust
kts
02/11:30pm 26.8 - - - - ESE 41 48 22 26 1010.5 - -
02/11:29pm 26.7 - - - - ESE 41 - 22 - - 1010.6 -
02/11:00pm 26.9 - - - - ESE 39 46 21 25 1010.7 - -
02/10:30pm 26.9 - - - - ESE 39 44 21 24 1010.7 - -
02/10:29pm 26.9 - - - - ESE 39 - 21 - - 1010.8 -
02/10:00pm 26.8 - - - - ESE 39 44 21 24 1010.8 - -
02/09:30pm 26.9 - - - - SE 41 50 22 27 1010.7 - -
02/09:29pm 26.9 - - - - SE 41 - 22 - - 1010.8 -
02/09:00pm 26.9 - - - - SE 41 48 22 26 1010.5 - -
02/08:30pm 27.0 - - - - ESE 43 48 23 26 1010.1 - -
02/08:29pm 27.0 - - - - ESE 43 - 23 - - 1010.2 -
02/08:00pm 27.0 - - - - SE 43 48 23 26 1009.9 - -
02/07:30pm 27.2 - - - - SE 43 50 23 27 1009.7 - -
02/07:29pm 27.1 - - - - SE 43 - 23 - - 1009.8 -
02/07:00pm 27.0 - - - - SE 43 48 23 26 1009.3 - -
02/06:30pm 27.1 - - - - SE 37 44 20 24 1009.1 - -
02/06:29pm 27.0 - - - - SE 37 - 20 - - 1009.3 -

Other Formats:

Comma delimited format used in spreadsheet applications
http://www.bom.gov.au/fwo/IDQ60801/IDQ60801.94379.axf

JavaScript Object Notation format (JSON) in row-major order
http://www.bom.gov.au/fwo/IDQ60801/IDQ60801.94379.json